Search for airport 
image banner adimage banner adimage banner ad
image banner ad

8CL4 - A G Spanos Companies Hq

Located in Stockton, United States

ICAO - 8CL4, IATA -

Data provided by Airmate  

General information

Coordinates: N38°2'52" W121°22'13"
Elevation is 96 feet MSL.
 
View others Airports in California

Operational data

Special qualification required
Current time UTC:
Current local time:
Weather at : KSCK - Stockton Metropolitan ( 21 km )
METAR: KSCK 210955Z 32007KT 10SM CLR 16/12 A2982 RMK AO2 SLP097 T01610122
TAF: KSCK 210520Z 2106/2206 31012KT P6SM SKC
View NOTAMs / SUP AIP / TFR affecting this airport [VIEW]
Communications frequencies: [VIEW]

Runways:

Airport contact information

Address: Stockton United States

Satellite view of 8CL4